createdAt,value
2022-10-06T00:01:06.031Z,14.75
2022-10-06T00:03:34.263Z,14.74
2022-10-06T00:06:05.816Z,14.69
2022-10-06T00:08:35.895Z,14.64
2022-10-06T00:11:03.953Z,14.65
2022-10-06T00:13:33.749Z,14.69
2022-10-06T00:16:02.458Z,14.75
2022-10-06T00:18:31.029Z,14.82
2022-10-06T00:21:01.096Z,14.92
2022-10-06T00:23:31.168Z,15.02
2022-10-06T00:25:59.385Z,15.08
2022-10-06T00:28:28.410Z,15.20
2022-10-06T00:30:58.120Z,15.31
2022-10-06T00:33:28.570Z,15.32
2022-10-06T00:36:00.681Z,15.39
2022-10-06T00:38:29.084Z,15.41
2022-10-06T00:40:57.655Z,15.51
2022-10-06T00:43:43.871Z,15.51
2022-10-06T00:46:16.817Z,15.51
2022-10-06T00:48:47.690Z,15.60
2022-10-06T00:51:18.435Z,15.71
2022-10-06T00:53:46.551Z,15.74
2022-10-06T00:56:14.624Z,15.70
2022-10-06T00:58:42.378Z,15.69
2022-10-06T01:01:13.888Z,15.68
2022-10-06T01:03:45.341Z,15.66
2022-10-06T01:06:13.236Z,15.66
2022-10-06T01:08:41.235Z,15.63
2022-10-06T01:11:13.103Z,15.65
2022-10-06T01:13:45.518Z,15.68
2022-10-06T01:16:19.634Z,15.75
2022-10-06T01:18:49.512Z,15.81
2022-10-06T01:21:24.156Z,15.82
2022-10-06T01:23:53.758Z,15.80
2022-10-06T01:26:24.383Z,15.78
2022-10-06T01:28:52.589Z,15.79
2022-10-06T01:31:21.595Z,15.81
2022-10-06T01:33:52.934Z,15.85
2022-10-06T01:36:21.350Z,15.89
2022-10-06T01:38:52.794Z,15.92
2022-10-06T01:41:21.672Z,15.94
2022-10-06T01:43:50.197Z,15.93
2022-10-06T01:46:18.102Z,15.96
2022-10-06T01:48:46.078Z,15.96
2022-10-06T01:51:16.977Z,16.02
2022-10-06T01:53:44.873Z,16.06
2022-10-06T01:56:14.310Z,16.09
2022-10-06T01:58:43.196Z,16.14
2022-10-06T02:01:11.986Z,16.18
2022-10-06T02:03:40.887Z,16.22
2022-10-06T02:06:11.639Z,16.25
2022-10-06T02:08:39.920Z,16.30
2022-10-06T02:11:10.766Z,16.33
2022-10-06T02:13:43.280Z,16.39
2022-10-06T02:16:13.770Z,16.42
2022-10-06T02:18:43.240Z,16.46
2022-10-06T02:21:16.355Z,16.44
2022-10-06T02:23:44.302Z,16.46
2022-10-06T02:26:13.547Z,16.47
2022-10-06T02:28:44.805Z,16.48
2022-10-06T02:31:15.664Z,16.50
2022-10-06T02:33:44.698Z,16.67
2022-10-06T02:36:15.619Z,16.75
2022-10-06T02:38:44.491Z,16.80
2022-10-06T02:41:12.670Z,16.90
2022-10-06T02:43:40.781Z,16.84
2022-10-06T02:46:13.001Z,16.81
2022-10-06T02:48:46.406Z,16.86
2022-10-06T02:51:17.151Z,16.93
2022-10-06T02:53:48.054Z,16.77
2022-10-06T02:56:19.766Z,16.67
2022-10-06T02:58:48.835Z,16.66
2022-10-06T03:01:27.771Z,16.70
2022-10-06T03:03:58.701Z,16.59
2022-10-06T03:06:28.213Z,16.52
2022-10-06T03:09:19.294Z,16.57
2022-10-06T03:11:47.215Z,16.55
2022-10-06T03:14:40.590Z,16.47
2022-10-06T03:17:10.864Z,16.45
2022-10-06T03:19:45.226Z,16.44
2022-10-06T03:22:13.139Z,16.46
2022-10-06T03:24:46.723Z,16.41
2022-10-06T03:27:14.752Z,16.37
2022-10-06T03:29:42.700Z,16.35
2022-10-06T03:32:11.975Z,16.50
2022-10-06T03:34:40.107Z,16.53
2022-10-06T03:37:11.649Z,16.52
2022-10-06T03:39:40.183Z,16.41
2022-10-06T03:42:08.370Z,16.44
2022-10-06T03:44:36.810Z,16.40
2022-10-06T03:47:05.465Z,16.37
2022-10-06T03:49:35.746Z,16.42
2022-10-06T03:52:03.665Z,16.40
2022-10-06T03:54:36.239Z,16.39
2022-10-06T03:57:04.264Z,16.34
2022-10-06T03:59:34.189Z,16.45
2022-10-06T04:02:05.316Z,16.41
2022-10-06T04:04:38.481Z,16.29
2022-10-06T04:07:11.277Z,16.23
2022-10-06T04:09:39.952Z,16.21
2022-10-06T04:12:09.445Z,16.22
2022-10-06T04:14:39.813Z,16.25
2022-10-06T04:17:08.755Z,16.26
2022-10-06T04:19:39.998Z,16.18
2022-10-06T04:22:08.374Z,16.25
2022-10-06T04:24:38.746Z,16.28
2022-10-06T04:27:26.859Z,16.28
2022-10-06T04:30:01.264Z,16.23
2022-10-06T04:32:29.592Z,16.21
2022-10-06T04:34:58.984Z,16.19
2022-10-06T04:37:28.968Z,16.24
2022-10-06T04:39:57.379Z,16.22
2022-10-06T04:42:34.694Z,16.20
2022-10-06T04:45:05.235Z,16.18
2022-10-06T04:47:33.601Z,16.16
2022-10-06T04:50:02.932Z,16.14
2022-10-06T04:52:31.107Z,16.14
2022-10-06T04:54:59.285Z,16.09
2022-10-06T04:57:29.883Z,16.09
2022-10-06T05:00:15.570Z,16.07
2022-10-06T05:02:46.400Z,16.07
2022-10-06T05:05:16.287Z,16.05
2022-10-06T05:07:44.919Z,16.02
2022-10-06T05:10:13.312Z,15.98
2022-10-06T05:12:41.407Z,15.94
2022-10-06T05:15:10.617Z,15.88
2022-10-06T05:17:38.579Z,15.85
2022-10-06T05:20:07.574Z,15.80
2022-10-06T05:22:36.725Z,15.73
2022-10-06T05:25:04.951Z,15.66
2022-10-06T05:27:33.050Z,15.59
2022-10-06T05:30:00.989Z,15.54
2022-10-06T05:32:35.817Z,15.48
2022-10-06T05:35:04.530Z,15.42
2022-10-06T05:37:32.326Z,15.36
2022-10-06T05:40:01.551Z,15.29
2022-10-06T05:42:29.997Z,15.26
2022-10-06T05:44:58.981Z,15.23
2022-10-06T05:47:26.939Z,15.27
2022-10-06T05:49:54.948Z,15.29
2022-10-06T05:52:22.807Z,15.25
2022-10-06T05:54:50.981Z,15.24
2022-10-06T05:57:20.817Z,15.23
2022-10-06T05:59:48.688Z,15.22
2022-10-06T06:02:17.478Z,15.17
2022-10-06T06:04:45.927Z,15.15
2022-10-06T06:07:14.373Z,15.12
2022-10-06T06:09:44.322Z,15.11
2022-10-06T06:12:12.172Z,15.13
2022-10-06T06:15:29.151Z,15.26
2022-10-06T06:18:06.383Z,15.25
2022-10-06T06:20:34.539Z,15.26
2022-10-06T06:23:02.668Z,15.24
2022-10-06T06:25:31.657Z,15.19
2022-10-06T06:27:59.619Z,15.22
2022-10-06T06:30:29.171Z,15.41
2022-10-06T06:33:00.186Z,15.30
2022-10-06T06:35:30.101Z,15.25
2022-10-06T06:37:59.830Z,15.48
2022-10-06T06:40:28.775Z,15.37
2022-10-06T06:42:59.201Z,15.28
2022-10-06T06:45:42.737Z,15.26
2022-10-06T06:48:35.834Z,15.27
2022-10-06T06:51:03.733Z,15.29
2022-10-06T06:53:33.368Z,15.31
2022-10-06T06:56:03.274Z,15.27
2022-10-06T06:58:33.867Z,15.25
2022-10-06T07:01:08.554Z,15.25
2022-10-06T07:03:56.649Z,15.26
2022-10-06T07:06:28.547Z,15.40
2022-10-06T07:08:59.531Z,15.39
2022-10-06T07:11:29.652Z,15.47
2022-10-06T07:14:01.151Z,15.47
2022-10-06T07:16:49.743Z,15.46
2022-10-06T07:19:36.690Z,15.55
2022-10-06T07:22:32.595Z,15.67
2022-10-06T07:25:12.528Z,15.75
2022-10-06T07:27:45.073Z,15.83
2022-10-06T07:30:19.238Z,15.76
2022-10-06T07:32:52.833Z,15.80
2022-10-06T07:35:23.690Z,15.72
2022-10-06T07:37:53.114Z,15.77
2022-10-06T07:40:22.951Z,15.78
2022-10-06T07:42:52.731Z,15.77
2022-10-06T07:45:45.534Z,15.82
2022-10-06T07:48:26.760Z,15.95
2022-10-06T07:50:58.525Z,16.00
2022-10-06T07:53:29.657Z,16.07
2022-10-06T07:56:20.432Z,16.19
2022-10-06T07:58:51.874Z,16.24
2022-10-06T08:01:21.372Z,16.32
2022-10-06T08:03:51.572Z,16.43
2022-10-06T08:06:23.487Z,16.56
2022-10-06T08:08:53.224Z,16.86
2022-10-06T08:11:22.692Z,16.90
2022-10-06T08:13:51.806Z,16.90
2022-10-06T08:16:24.297Z,16.82
2022-10-06T08:18:55.086Z,16.71
2022-10-06T08:21:25.626Z,16.55
2022-10-06T08:23:54.996Z,16.49
2022-10-06T08:26:24.945Z,16.38
2022-10-06T08:28:54.192Z,16.32
2022-10-06T08:31:23.786Z,16.34
2022-10-06T08:33:57.361Z,16.45
2022-10-06T08:36:31.272Z,16.47
2022-10-06T08:39:00.108Z,16.47
2022-10-06T08:41:34.256Z,16.49
2022-10-06T08:44:06.121Z,16.51
2022-10-06T08:46:40.258Z,16.57
2022-10-06T08:49:18.036Z,16.66
2022-10-06T08:51:57.073Z,16.62
2022-10-06T08:54:30.784Z,16.65
2022-10-06T08:57:05.366Z,16.78
2022-10-06T08:59:35.629Z,16.85
2022-10-06T09:02:06.714Z,16.90
2022-10-06T09:04:36.019Z,17.13
2022-10-06T09:07:13.953Z,17.02
2022-10-06T09:09:58.663Z,16.97
2022-10-06T09:12:33.525Z,16.98
2022-10-06T09:15:16.416Z,17.09
2022-10-06T09:17:50.228Z,17.21
2022-10-06T09:20:27.528Z,17.23
2022-10-06T09:22:57.460Z,17.26
2022-10-06T09:25:28.729Z,17.38
2022-10-06T09:27:58.400Z,17.36
2022-10-06T09:30:27.311Z,17.37
2022-10-06T09:33:00.284Z,17.34
2022-10-06T09:35:31.519Z,17.35
2022-10-06T09:38:08.314Z,17.43
2022-10-06T09:40:38.972Z,17.42
2022-10-06T09:43:20.256Z,17.46
2022-10-06T09:45:48.166Z,17.55
2022-10-06T09:48:24.723Z,17.65
2022-10-06T09:51:14.253Z,17.76
2022-10-06T09:53:42.398Z,17.66
2022-10-06T09:56:18.585Z,17.71
2022-10-06T09:58:57.496Z,17.79
2022-10-06T10:01:27.479Z,17.94
2022-10-06T10:04:20.705Z,17.96
2022-10-06T10:06:50.192Z,18.03
2022-10-06T10:09:26.977Z,18.09
2022-10-06T10:12:27.613Z,18.20
2022-10-06T10:14:58.743Z,18.23
2022-10-06T10:17:39.472Z,18.15
2022-10-06T10:20:22.371Z,18.17
2022-10-06T10:22:53.090Z,18.20
2022-10-06T10:25:46.287Z,18.13
2022-10-06T10:28:30.897Z,18.12
2022-10-06T10:31:04.515Z,18.21
2022-10-06T10:33:46.157Z,18.11
2022-10-06T10:36:31.265Z,17.92
2022-10-06T10:39:07.493Z,17.89
2022-10-06T10:41:41.893Z,17.95
2022-10-06T10:44:12.122Z,18.02
2022-10-06T10:46:46.736Z,18.10
2022-10-06T10:49:20.663Z,18.14
2022-10-06T10:51:52.480Z,18.13
2022-10-06T10:54:27.213Z,18.13
2022-10-06T10:56:55.323Z,18.14
2022-10-06T10:59:26.942Z,18.40
2022-10-06T11:02:01.178Z,18.21
2022-10-06T11:04:29.199Z,18.14
2022-10-06T11:07:11.012Z,18.20
2022-10-06T11:09:49.134Z,18.27
2022-10-06T11:12:27.119Z,18.35
2022-10-06T11:14:59.869Z,18.46
2022-10-06T11:17:44.246Z,18.52
2022-10-06T11:20:26.554Z,18.69
2022-10-06T11:23:00.681Z,18.74
2022-10-06T11:25:40.566Z,18.69
2022-10-06T11:28:17.132Z,18.65
2022-10-06T11:31:04.814Z,18.62
2022-10-06T11:33:38.709Z,18.70
2022-10-06T11:36:16.853Z,18.90
2022-10-06T11:38:50.508Z,18.74
2022-10-06T11:41:26.784Z,18.79
2022-10-06T11:44:03.538Z,18.81
2022-10-06T11:46:37.511Z,18.83
2022-10-06T11:49:53.250Z,18.82
2022-10-06T11:52:45.427Z,18.70
2022-10-06T11:55:23.761Z,18.78
2022-10-06T12:01:02.345Z,19.03
2022-10-06T12:04:05.986Z,19.10
2022-10-06T12:07:07.440Z,19.23
2022-10-06T12:09:53.618Z,19.35
2022-10-06T12:13:06.661Z,19.47
2022-10-06T12:19:16.809Z,19.61
2022-10-06T12:21:53.439Z,19.58
2022-10-06T12:24:36.897Z,19.67
2022-10-06T12:27:29.472Z,19.62
2022-10-06T12:30:04.098Z,19.70
2022-10-06T12:32:53.740Z,19.76
2022-10-06T12:35:30.191Z,19.84
2022-10-06T12:38:04.433Z,19.91
2022-10-06T12:40:54.510Z,19.99
2022-10-06T12:43:57.098Z,20.15
2022-10-06T12:46:41.200Z,20.30
2022-10-06T12:49:32.003Z,20.39
2022-10-06T12:52:06.602Z,20.51
2022-10-06T12:54:41.053Z,20.60
2022-10-06T12:57:18.286Z,20.67
2022-10-06T12:59:46.340Z,20.75
2022-10-06T13:02:19.039Z,20.72
2022-10-06T13:04:52.487Z,20.79
2022-10-06T13:07:22.842Z,20.80
2022-10-06T13:09:53.314Z,20.72
2022-10-06T13:12:27.660Z,20.79
2022-10-06T13:15:11.713Z,20.84
2022-10-06T13:17:43.300Z,20.96
2022-10-06T13:20:22.749Z,20.85
2022-10-06T13:22:58.903Z,20.87
2022-10-06T13:25:34.064Z,20.89
2022-10-06T13:28:02.758Z,21.04
2022-10-06T13:30:34.989Z,21.25
2022-10-06T13:33:08.995Z,21.46
2022-10-06T13:35:39.123Z,21.58
2022-10-06T13:38:07.126Z,21.64
2022-10-06T13:40:50.416Z,21.70
2022-10-06T13:43:20.195Z,21.92
2022-10-06T13:45:49.271Z,22.13
2022-10-06T13:48:22.300Z,22.25
2022-10-06T13:50:53.188Z,22.37
2022-10-06T13:53:31.277Z,22.54
2022-10-06T13:55:59.683Z,22.67
2022-10-06T13:58:29.949Z,22.76
2022-10-06T14:01:00.902Z,22.91
2022-10-06T14:03:33.731Z,22.73
2022-10-06T14:06:17.398Z,22.60
2022-10-06T14:08:49.919Z,22.68
2022-10-06T14:11:23.585Z,22.84
2022-10-06T14:13:53.709Z,22.92
2022-10-06T14:16:24.170Z,23.01
2022-10-06T14:18:56.905Z,23.11
2022-10-06T14:21:41.331Z,23.09
2022-10-06T14:24:23.776Z,22.93
2022-10-06T14:26:52.049Z,22.74
2022-10-06T14:29:20.364Z,22.55
2022-10-06T14:31:49.173Z,22.36
2022-10-06T14:34:18.990Z,22.31
2022-10-06T14:36:51.245Z,22.29
2022-10-06T14:39:19.472Z,22.26
2022-10-06T14:41:47.489Z,22.09
2022-10-06T14:44:16.089Z,21.86
2022-10-06T14:46:49.289Z,21.86
2022-10-06T14:49:18.141Z,21.88
2022-10-06T14:51:46.564Z,21.87
2022-10-06T14:54:15.818Z,21.78
2022-10-06T14:56:44.060Z,21.80
2022-10-06T14:59:16.805Z,21.74
2022-10-06T15:01:45.711Z,21.55
2022-10-06T15:04:14.956Z,21.38
2022-10-06T15:07:01.530Z,21.28
2022-10-06T15:09:35.658Z,21.37
2022-10-06T15:12:05.249Z,21.31
2022-10-06T15:14:34.949Z,21.28
2022-10-06T15:17:03.445Z,21.18
2022-10-06T15:19:31.352Z,21.01
2022-10-06T15:21:59.370Z,21.01
2022-10-06T15:24:27.192Z,20.96
2022-10-06T15:27:13.950Z,20.66
2022-10-06T15:29:44.069Z,20.54
2022-10-06T15:32:11.939Z,20.32
2022-10-06T15:34:39.796Z,20.24
2022-10-06T15:37:07.627Z,20.22
2022-10-06T15:39:37.797Z,20.17
2022-10-06T15:42:10.362Z,20.04
2022-10-06T15:44:38.224Z,19.89
2022-10-06T15:47:07.030Z,19.71
2022-10-06T15:49:40.208Z,19.66
2022-10-06T15:52:09.314Z,19.50
2022-10-06T15:54:39.369Z,19.48
2022-10-06T15:57:17.880Z,19.43
2022-10-06T15:59:48.471Z,19.34
2022-10-06T16:02:17.889Z,19.34
2022-10-06T16:04:56.739Z,19.27
2022-10-06T16:07:28.656Z,19.17
2022-10-06T16:09:56.628Z,19.13
2022-10-06T16:12:28.340Z,19.03
2022-10-06T16:14:58.993Z,18.93
2022-10-06T16:17:26.819Z,18.83
2022-10-06T16:19:54.663Z,18.74
2022-10-06T16:22:22.683Z,18.66
2022-10-06T16:24:51.167Z,18.54
2022-10-06T16:27:19.006Z,18.41
2022-10-06T16:29:48.273Z,18.29
2022-10-06T16:32:17.174Z,18.15
2022-10-06T16:34:50.376Z,18.02
2022-10-06T16:37:18.586Z,17.88
2022-10-06T16:39:46.489Z,17.76
2022-10-06T16:42:14.586Z,17.63
2022-10-06T16:44:42.419Z,17.53
2022-10-06T16:47:11.709Z,17.43
2022-10-06T16:49:39.624Z,17.30
2022-10-06T16:52:07.582Z,17.19
2022-10-06T16:54:35.502Z,17.06
2022-10-06T16:57:06.619Z,16.97
2022-10-06T16:59:34.508Z,16.87
2022-10-06T17:02:02.340Z,16.74
2022-10-06T17:04:31.706Z,16.63
2022-10-06T17:06:59.615Z,16.54
2022-10-06T17:09:30.109Z,16.44
2022-10-06T17:11:59.311Z,16.33
2022-10-06T17:14:28.102Z,16.24
2022-10-06T17:16:56.849Z,16.15
2022-10-06T17:19:26.578Z,16.04
2022-10-06T17:21:58.945Z,15.95
2022-10-06T17:24:29.121Z,15.85
2022-10-06T17:26:58.302Z,15.76
2022-10-06T17:29:27.176Z,15.62
2022-10-06T17:31:59.891Z,15.51
2022-10-06T17:34:32.469Z,15.44
2022-10-06T17:37:03.336Z,15.39
2022-10-06T17:39:31.898Z,15.25
2022-10-06T17:41:59.803Z,15.14
2022-10-06T17:44:28.736Z,15.09
2022-10-06T17:46:58.049Z,14.99
2022-10-06T17:49:26.338Z,14.89
2022-10-06T17:51:55.774Z,14.79
2022-10-06T17:54:27.009Z,14.72
2022-10-06T17:56:57.320Z,14.64
2022-10-06T17:59:28.054Z,14.61
2022-10-06T18:01:57.992Z,14.59
2022-10-06T18:04:27.098Z,14.48
2022-10-06T18:06:58.171Z,14.44
2022-10-06T18:09:27.361Z,14.38
2022-10-06T18:11:59.573Z,14.35
2022-10-06T18:14:32.147Z,14.28
2022-10-06T18:17:03.549Z,14.22
2022-10-06T18:19:33.256Z,14.12
2022-10-06T18:22:03.226Z,14.03
2022-10-06T18:24:33.089Z,13.95
2022-10-06T18:27:01.893Z,13.88
2022-10-06T18:29:31.391Z,13.81
2022-10-06T18:32:25.853Z,13.76
2022-10-06T18:37:35.842Z,13.59
2022-10-06T18:40:08.501Z,13.57
2022-10-06T18:42:36.444Z,13.50
2022-10-06T18:45:22.287Z,13.46
2022-10-06T18:48:06.798Z,13.45
2022-10-06T18:50:35.084Z,13.41
2022-10-06T18:53:04.004Z,13.33
2022-10-06T18:55:34.810Z,13.28
2022-10-06T18:58:03.183Z,13.20
2022-10-06T19:00:31.088Z,13.14
2022-10-06T19:02:58.899Z,13.14
2022-10-06T19:05:31.017Z,12.95
2022-10-06T19:07:59.107Z,12.82
2022-10-06T19:10:27.235Z,12.77
2022-10-06T19:12:58.159Z,12.74
2022-10-06T19:15:26.144Z,12.72
2022-10-06T19:17:53.943Z,12.67
2022-10-06T19:20:23.230Z,12.59
2022-10-06T19:22:51.123Z,12.60
2022-10-06T19:25:19.566Z,12.61
2022-10-06T19:27:50.174Z,12.55
2022-10-06T19:30:19.449Z,12.49
2022-10-06T19:32:47.331Z,12.49
2022-10-06T19:35:16.099Z,12.46
2022-10-06T19:37:44.302Z,12.36
2022-10-06T19:40:12.363Z,12.33
2022-10-06T19:42:48.341Z,12.26
2022-10-06T19:45:21.003Z,12.23
2022-10-06T19:47:49.023Z,12.17
2022-10-06T19:50:17.871Z,12.18
2022-10-06T19:52:46.181Z,12.12
2022-10-06T19:55:14.178Z,12.12
2022-10-06T19:57:44.741Z,12.10
2022-10-06T20:00:15.598Z,12.07
2022-10-06T20:02:45.189Z,12.01
2022-10-06T20:05:14.491Z,11.93
2022-10-06T20:07:43.740Z,11.89
2022-10-06T20:10:12.840Z,11.86
2022-10-06T20:12:42.130Z,11.76
2022-10-06T20:15:10.891Z,11.76
2022-10-06T20:17:42.325Z,11.72
2022-10-06T20:20:13.744Z,11.68
2022-10-06T20:22:41.599Z,11.68
2022-10-06T20:25:10.311Z,11.64
2022-10-06T20:27:40.421Z,11.60
2022-10-06T20:30:09.440Z,11.61
2022-10-06T20:32:37.661Z,11.59
2022-10-06T20:35:06.738Z,11.54
2022-10-06T20:37:38.271Z,11.53
2022-10-06T20:40:27.932Z,11.56
2022-10-06T20:42:55.780Z,11.51
2022-10-06T20:45:23.711Z,11.44
2022-10-06T20:47:51.562Z,11.38
2022-10-06T20:50:19.894Z,11.37
2022-10-06T20:52:53.208Z,11.32
2022-10-06T20:55:21.259Z,11.26
2022-10-06T20:57:51.974Z,11.25
2022-10-06T21:00:22.898Z,11.18
2022-10-06T21:02:50.880Z,11.15
2022-10-06T21:05:18.901Z,11.13
2022-10-06T21:07:47.042Z,11.11
2022-10-06T21:10:16.742Z,11.11
2022-10-06T21:12:46.108Z,11.09
2022-10-06T21:15:14.339Z,11.05
2022-10-06T21:17:46.397Z,11.00
2022-10-06T21:20:15.038Z,11.02
2022-10-06T21:22:42.885Z,10.92
2022-10-06T21:25:12.974Z,10.93
2022-10-06T21:27:42.534Z,10.88
2022-10-06T21:30:13.455Z,10.82
2022-10-06T21:32:42.369Z,10.81
2022-10-06T21:35:10.483Z,10.78
2022-10-06T21:37:38.303Z,10.74
2022-10-06T21:40:10.109Z,10.73
2022-10-06T21:42:38.050Z,10.69
2022-10-06T21:45:10.683Z,10.61
2022-10-06T21:47:38.651Z,10.59
2022-10-06T21:50:07.256Z,10.56
2022-10-06T21:52:35.104Z,10.54
2022-10-06T21:55:02.982Z,10.54
2022-10-06T21:57:30.924Z,10.47
2022-10-06T21:59:58.785Z,10.47
2022-10-06T22:02:28.315Z,10.45
2022-10-06T22:04:56.313Z,10.40
2022-10-06T22:07:24.201Z,10.40
2022-10-06T22:09:55.175Z,10.39
2022-10-06T22:12:25.533Z,10.40
2022-10-06T22:14:54.761Z,10.33
2022-10-06T22:17:22.661Z,10.29
2022-10-06T22:19:52.005Z,10.26
2022-10-06T22:22:24.533Z,10.27
2022-10-06T22:24:52.506Z,10.27
2022-10-06T22:27:20.424Z,10.24
2022-10-06T22:29:48.499Z,10.17
2022-10-06T22:32:16.825Z,10.15
2022-10-06T22:34:45.037Z,10.11
2022-10-06T22:37:14.280Z,10.04
2022-10-06T22:39:42.260Z,10.04
2022-10-06T22:42:10.141Z,10.04
2022-10-06T22:44:38.050Z,9.94
2022-10-06T22:47:06.108Z,9.87
2022-10-06T22:49:34.156Z,9.84
2022-10-06T22:52:01.941Z,9.82
2022-10-06T22:54:32.227Z,9.78
2022-10-06T22:57:00.191Z,9.77
2022-10-06T22:59:28.152Z,9.72
2022-10-06T23:01:55.960Z,9.70
2022-10-06T23:04:26.184Z,9.68
2022-10-06T23:06:54.020Z,9.64
2022-10-06T23:09:22.035Z,9.60
2022-10-06T23:11:51.158Z,9.59
2022-10-06T23:14:19.025Z,9.55
2022-10-06T23:16:46.962Z,9.54
2022-10-06T23:19:15.232Z,9.49
2022-10-06T23:21:43.138Z,9.53
2022-10-06T23:24:13.183Z,9.55
2022-10-06T23:26:41.025Z,9.53
2022-10-06T23:29:13.005Z,9.51
2022-10-06T23:31:43.700Z,9.43
2022-10-06T23:34:14.154Z,9.35
2022-10-06T23:36:42.122Z,9.30
2022-10-06T23:39:10.494Z,9.25
2022-10-06T23:41:41.882Z,9.21
2022-10-06T23:44:11.116Z,9.26
2022-10-06T23:46:39.114Z,9.21
2022-10-06T23:49:07.034Z,9.19
2022-10-06T23:51:35.113Z,9.18
2022-10-06T23:54:03.044Z,9.11
2022-10-06T23:56:30.981Z,9.11
2022-10-06T23:58:59.000Z,9.10
